createdAt,value
2018-05-02T00:01:15.398Z,1014.67
2018-05-02T00:02:15.089Z,1014.71
2018-05-02T00:03:15.920Z,1014.66
2018-05-02T00:04:36.597Z,1014.67
2018-05-02T00:05:36.427Z,1014.68
2018-05-02T00:06:36.207Z,1014.65
2018-05-02T00:07:37.954Z,1014.64
2018-05-02T00:08:36.657Z,1014.63
2018-05-02T00:09:36.765Z,1014.62
2018-05-02T00:10:56.989Z,1014.66
2018-05-02T00:11:57.806Z,1014.61
2018-05-02T00:12:57.703Z,1014.63
2018-05-02T00:13:57.401Z,1014.65
2018-05-02T00:14:57.359Z,1014.61
2018-05-02T00:15:57.530Z,1014.62
2018-05-02T00:16:57.276Z,1014.58
2018-05-02T00:17:56.936Z,1014.60
2018-05-02T00:18:58.097Z,1014.60
2018-05-02T00:19:56.921Z,1014.63
2018-05-02T00:20:57.907Z,1014.60
2018-05-02T00:21:57.974Z,1014.63
2018-05-02T00:22:58.001Z,1014.61
2018-05-02T00:23:57.299Z,1014.60
2018-05-02T00:24:57.510Z,1014.60
2018-05-02T00:25:57.039Z,1014.60
2018-05-02T00:26:56.698Z,1014.56
2018-05-02T00:27:57.359Z,1014.56
2018-05-02T00:28:57.392Z,1014.54
2018-05-02T00:29:56.984Z,1014.51
2018-05-02T00:30:57.611Z,1014.49
2018-05-02T00:32:19.994Z,1014.51
2018-05-02T00:33:19.504Z,1014.48
2018-05-02T00:34:20.285Z,1014.53
2018-05-02T00:35:20.009Z,1014.53
2018-05-02T00:36:20.023Z,1014.47
2018-05-02T00:37:21.389Z,1014.47
2018-05-02T00:38:20.551Z,1014.48
2018-05-02T00:39:20.226Z,1014.44
2018-05-02T00:40:41.024Z,1014.43
2018-05-02T00:41:46.248Z,1014.45
2018-05-02T00:42:41.515Z,1014.43
2018-05-02T00:43:41.986Z,1014.45
2018-05-02T00:45:03.691Z,1014.47
2018-05-02T00:46:04.085Z,1014.46
2018-05-02T00:47:05.330Z,1014.49
2018-05-02T00:48:05.708Z,1014.44
2018-05-02T00:49:04.663Z,1014.44
2018-05-02T00:50:08.453Z,1014.44
2018-05-02T00:51:03.437Z,1014.43
2018-05-02T00:52:03.687Z,1014.43
2018-05-02T00:53:03.294Z,1014.45
2018-05-02T00:54:03.933Z,1014.45
2018-05-02T00:55:03.788Z,1014.44
2018-05-02T00:56:04.461Z,1014.44
2018-05-02T00:57:03.515Z,1014.43
2018-05-02T00:58:26.013Z,1014.43
2018-05-02T00:59:26.109Z,1014.44
2018-05-02T01:00:27.316Z,1014.46
2018-05-02T01:01:26.749Z,1014.44
2018-05-02T01:02:27.788Z,1014.45
2018-05-02T01:03:47.172Z,1014.44
2018-05-02T01:04:51.669Z,1014.45
2018-05-02T01:05:48.715Z,1014.42
2018-05-02T01:06:51.384Z,1014.43
2018-05-02T01:08:32.998Z,1014.44
2018-05-02T01:09:56.161Z,1014.42
2018-05-02T01:11:20.599Z,1014.47
2018-05-02T01:12:23.530Z,1014.47
2018-05-02T01:13:21.594Z,1014.47
2018-05-02T01:14:19.106Z,1014.47
2018-05-02T01:15:19.997Z,1014.51
2018-05-02T01:16:19.893Z,1014.49
2018-05-02T01:17:20.419Z,1014.50
2018-05-02T01:18:19.559Z,1014.53
2018-05-02T01:19:21.210Z,1014.54
2018-05-02T01:20:19.516Z,1014.57
2018-05-02T01:21:19.791Z,1014.53
2018-05-02T01:22:18.765Z,1014.53
2018-05-02T01:23:41.879Z,1014.55
2018-05-02T01:24:42.487Z,1014.59
2018-05-02T01:26:05.281Z,1014.62
2018-05-02T01:27:05.043Z,1014.55
2018-05-02T01:28:05.576Z,1014.58
2018-05-02T01:29:05.363Z,1014.54
2018-05-02T01:30:26.113Z,1014.62
2018-05-02T01:31:25.944Z,1014.62
2018-05-02T01:32:47.311Z,1014.66
2018-05-02T01:33:48.528Z,1014.65
2018-05-02T01:34:48.018Z,1014.63
2018-05-02T01:35:48.031Z,1014.59
2018-05-02T01:36:48.072Z,1014.63
2018-05-02T01:37:48.179Z,1014.64
2018-05-02T01:38:48.932Z,1014.62
2018-05-02T01:39:47.861Z,1014.61
2018-05-02T01:40:47.564Z,1014.61
2018-05-02T01:41:48.396Z,1014.69
2018-05-02T01:42:47.948Z,1014.70
2018-05-02T01:43:47.662Z,1014.72
2018-05-02T01:44:48.593Z,1014.68
2018-05-02T01:45:48.124Z,1014.69
2018-05-02T01:46:47.878Z,1014.67
2018-05-02T01:47:47.949Z,1014.69
2018-05-02T01:48:47.512Z,1014.69
2018-05-02T01:49:48.243Z,1014.71
2018-05-02T01:50:48.266Z,1014.70
2018-05-02T01:51:48.293Z,1014.68
2018-05-02T01:52:47.707Z,1014.66
2018-05-02T01:53:47.402Z,1014.72
2018-05-02T01:54:48.455Z,1014.74
2018-05-02T01:55:48.561Z,1014.75
2018-05-02T01:56:48.123Z,1014.74
2018-05-02T01:57:47.926Z,1014.74
2018-05-02T01:58:47.916Z,1014.72
2018-05-02T01:59:47.782Z,1014.75
2018-05-02T02:00:48.753Z,1014.73
2018-05-02T02:01:47.762Z,1014.70
2018-05-02T02:02:48.262Z,1014.72
2018-05-02T02:03:48.138Z,1014.74
2018-05-02T02:04:48.149Z,1014.73
2018-05-02T02:05:48.286Z,1014.73
2018-05-02T02:06:48.143Z,1014.75
2018-05-02T02:07:47.811Z,1014.73
2018-05-02T02:08:47.515Z,1014.75
2018-05-02T02:09:48.138Z,1014.71
2018-05-02T02:10:47.684Z,1014.71
2018-05-02T02:11:49.140Z,1014.71
2018-05-02T02:12:47.535Z,1014.72
2018-05-02T02:13:48.181Z,1014.71
2018-05-02T02:14:47.651Z,1014.70
2018-05-02T02:16:08.320Z,1014.70
2018-05-02T02:17:08.887Z,1014.71
2018-05-02T02:18:29.009Z,1014.73
2018-05-02T02:19:30.126Z,1014.73
2018-05-02T02:20:29.699Z,1014.72
2018-05-02T02:21:29.179Z,1014.71
2018-05-02T02:22:30.045Z,1014.66
2018-05-02T02:23:30.019Z,1014.74
2018-05-02T02:24:29.475Z,1014.68
2018-05-02T02:25:30.915Z,1014.67
2018-05-02T02:26:29.732Z,1014.70
2018-05-02T02:27:50.671Z,1014.65
2018-05-02T02:28:51.470Z,1014.68
2018-05-02T02:29:52.156Z,1014.65
2018-05-02T02:30:51.093Z,1014.65
2018-05-02T02:31:50.940Z,1014.67
2018-05-02T02:32:51.456Z,1014.64
2018-05-02T02:33:51.510Z,1014.67
2018-05-02T02:34:51.396Z,1014.66
2018-05-02T02:35:51.455Z,1014.62
2018-05-02T02:36:51.398Z,1014.61
2018-05-02T02:37:51.029Z,1014.57
2018-05-02T02:38:51.255Z,1014.59
2018-05-02T02:39:50.707Z,1014.57
2018-05-02T02:40:51.291Z,1014.54
2018-05-02T02:41:50.970Z,1014.53
2018-05-02T02:42:51.015Z,1014.56
2018-05-02T02:43:50.545Z,1014.50
2018-05-02T02:44:51.215Z,1014.52
2018-05-02T02:45:50.907Z,1014.49
2018-05-02T02:46:51.069Z,1014.48
2018-05-02T02:47:51.096Z,1014.51
2018-05-02T02:49:11.015Z,1014.50
2018-05-02T02:50:12.019Z,1014.52
2018-05-02T02:51:32.319Z,1014.52
2018-05-02T02:52:32.031Z,1014.48
2018-05-02T02:53:33.059Z,1014.50
2018-05-02T02:54:33.087Z,1014.50
2018-05-02T02:55:32.612Z,1014.48
2018-05-02T02:56:32.672Z,1014.48
2018-05-02T02:57:32.802Z,1014.51
2018-05-02T02:58:32.303Z,1014.52
2018-05-02T02:59:32.918Z,1014.49
2018-05-02T03:00:32.934Z,1014.47
2018-05-02T03:01:32.893Z,1014.50
2018-05-02T03:02:32.522Z,1014.46
2018-05-02T03:03:33.160Z,1014.43
2018-05-02T03:04:53.449Z,1014.46
2018-05-02T03:05:54.300Z,1014.49
2018-05-02T03:07:35.190Z,1014.50
2018-05-02T03:08:36.398Z,1014.47
2018-05-02T03:09:35.423Z,1014.45
2018-05-02T03:10:35.551Z,1014.42
2018-05-02T03:11:35.591Z,1014.42
2018-05-02T03:12:35.489Z,1014.43
2018-05-02T03:13:35.007Z,1014.44
2018-05-02T03:14:36.077Z,1014.43
2018-05-02T03:15:35.603Z,1014.42
2018-05-02T03:16:35.326Z,1014.42
2018-05-02T03:17:35.085Z,1014.39
2018-05-02T03:18:54.834Z,1014.39
2018-05-02T03:20:16.184Z,1014.35
2018-05-02T03:21:15.847Z,1014.24
2018-05-02T03:22:16.568Z,1014.31
2018-05-02T03:23:37.500Z,1014.27
2018-05-02T03:24:37.039Z,1014.28
2018-05-02T03:25:37.853Z,1014.33
2018-05-02T03:26:37.388Z,1014.32
2018-05-02T03:27:37.412Z,1014.31
2018-05-02T03:28:37.041Z,1014.32
2018-05-02T03:29:37.810Z,1014.25
2018-05-02T03:30:37.697Z,1014.27
2018-05-02T03:31:37.271Z,1014.29
2018-05-02T03:32:38.302Z,1014.26
2018-05-02T03:33:37.904Z,1014.26
2018-05-02T03:35:00.721Z,1014.27
2018-05-02T03:36:21.858Z,1014.26
2018-05-02T03:37:22.793Z,1014.28
2018-05-02T03:38:22.650Z,1014.31
2018-05-02T03:39:22.208Z,1014.32
2018-05-02T03:40:21.936Z,1014.31
2018-05-02T03:41:43.299Z,1014.32
2018-05-02T03:42:43.400Z,1014.31
2018-05-02T03:43:43.381Z,1014.30
2018-05-02T03:45:05.979Z,1014.32
2018-05-02T03:46:06.806Z,1014.32
2018-05-02T03:47:06.713Z,1014.29
2018-05-02T03:48:06.401Z,1014.33
2018-05-02T03:49:06.403Z,1014.38
2018-05-02T03:50:46.516Z,1014.34
2018-05-02T03:51:47.196Z,1014.39
2018-05-02T03:52:46.916Z,1014.34
2018-05-02T03:53:46.615Z,1014.33
2018-05-02T03:54:47.273Z,1014.39
2018-05-02T03:55:46.988Z,1014.33
2018-05-02T03:56:47.177Z,1014.37
2018-05-02T03:57:46.712Z,1014.33
2018-05-02T03:58:47.483Z,1014.32
2018-05-02T03:59:47.187Z,1014.33
2018-05-02T04:00:46.838Z,1014.37
2018-05-02T04:01:47.416Z,1014.32
2018-05-02T04:02:46.995Z,1014.36
2018-05-02T04:03:46.700Z,1014.34
2018-05-02T04:04:47.652Z,1014.32
2018-05-02T04:06:07.899Z,1014.36
2018-05-02T04:07:07.907Z,1014.38
2018-05-02T04:08:07.434Z,1014.34
2018-05-02T04:09:28.813Z,1014.37
2018-05-02T04:10:29.509Z,1014.37
2018-05-02T04:11:29.256Z,1014.40
2018-05-02T04:12:28.823Z,1014.39
2018-05-02T04:13:29.643Z,1014.40
2018-05-02T04:14:29.280Z,1014.43
2018-05-02T04:15:50.184Z,1014.45
2018-05-02T04:16:51.258Z,1014.40
2018-05-02T04:17:50.073Z,1014.45
2018-05-02T04:18:50.837Z,1014.43
2018-05-02T04:19:50.861Z,1014.44
2018-05-02T04:20:51.025Z,1014.44
2018-05-02T04:21:50.230Z,1014.40
2018-05-02T04:22:50.840Z,1014.38
2018-05-02T04:23:50.958Z,1014.41
2018-05-02T04:24:51.382Z,1014.41
2018-05-02T04:25:51.013Z,1014.45
2018-05-02T04:26:51.158Z,1014.43
2018-05-02T04:27:50.813Z,1014.45
2018-05-02T04:28:51.104Z,1014.39
2018-05-02T04:29:50.323Z,1014.42
2018-05-02T04:30:50.516Z,1014.43
2018-05-02T04:31:50.121Z,1014.41
2018-05-02T04:32:51.164Z,1014.43
2018-05-02T04:34:33.780Z,1014.47
2018-05-02T04:35:33.511Z,1014.47
2018-05-02T04:36:33.100Z,1014.40
2018-05-02T04:37:33.817Z,1014.50
2018-05-02T04:38:33.686Z,1014.51
2018-05-02T04:39:33.755Z,1014.52
2018-05-02T04:40:33.908Z,1014.55
2018-05-02T04:41:33.608Z,1014.57
2018-05-02T04:42:54.343Z,1014.55
2018-05-02T04:43:55.353Z,1014.52
2018-05-02T04:44:55.358Z,1014.56
2018-05-02T04:45:55.383Z,1014.54
2018-05-02T04:46:55.370Z,1014.49
2018-05-02T04:47:55.563Z,1014.52
2018-05-02T04:48:56.696Z,1014.56
2018-05-02T04:50:16.154Z,1014.54
2018-05-02T04:51:15.930Z,1014.48
2018-05-02T04:52:37.852Z,1014.51
2018-05-02T04:53:38.892Z,1014.54
2018-05-02T04:54:37.911Z,1014.52
2018-05-02T04:55:38.224Z,1014.54
2018-05-02T04:56:38.181Z,1014.56
2018-05-02T04:57:38.342Z,1014.57
2018-05-02T04:58:50.982Z,1014.58
2018-05-02T04:59:38.825Z,1014.60
2018-05-02T05:00:38.221Z,1014.64
2018-05-02T05:01:38.058Z,1014.63
2018-05-02T05:02:37.854Z,1014.66
2018-05-02T05:03:58.176Z,1014.63
2018-05-02T05:04:59.107Z,1014.67
2018-05-02T05:06:22.249Z,1014.70
2018-05-02T05:07:23.279Z,1014.70
2018-05-02T05:08:22.135Z,1014.74
2018-05-02T05:09:22.456Z,1014.72
2018-05-02T05:10:22.892Z,1014.72
2018-05-02T05:11:44.022Z,1014.76
2018-05-02T05:13:06.386Z,1014.79
2018-05-02T05:14:07.233Z,1014.78
2018-05-02T05:15:06.977Z,1014.81
2018-05-02T05:16:07.111Z,1014.79
2018-05-02T05:17:07.320Z,1014.79
2018-05-02T05:18:07.589Z,1014.85
2018-05-02T05:19:07.319Z,1014.90
2018-05-02T05:20:06.983Z,1014.91
2018-05-02T05:21:07.110Z,1014.88
2018-05-02T05:22:07.496Z,1014.93
2018-05-02T05:23:07.278Z,1014.93
2018-05-02T05:24:28.465Z,1014.87
2018-05-02T05:25:49.395Z,1014.88
2018-05-02T05:26:50.561Z,1014.84
2018-05-02T05:28:10.450Z,1014.83
2018-05-02T05:29:10.365Z,1014.81
2018-05-02T05:30:31.182Z,1014.82
2018-05-02T05:31:32.168Z,1014.79
2018-05-02T05:32:52.944Z,1014.84
2018-05-02T05:34:13.478Z,1014.81
2018-05-02T05:35:15.645Z,1014.77
2018-05-02T05:36:13.834Z,1014.78
2018-05-02T05:37:56.048Z,1014.78
2018-05-02T05:39:16.821Z,1014.84
2018-05-02T05:40:17.911Z,1014.81
2018-05-02T05:41:17.929Z,1014.91
2018-05-02T05:42:17.425Z,1014.86
2018-05-02T05:43:20.151Z,1014.87
2018-05-02T05:44:17.321Z,1014.90
2018-05-02T05:45:37.647Z,1014.80
2018-05-02T05:47:21.547Z,1014.85
2018-05-02T05:48:22.734Z,1014.81
2018-05-02T05:49:22.470Z,1014.85
2018-05-02T05:50:22.090Z,1014.82
2018-05-02T05:51:20.830Z,1014.79
2018-05-02T05:52:21.003Z,1014.79
2018-05-02T05:53:21.345Z,1014.77
2018-05-02T05:54:21.120Z,1014.82
2018-05-02T05:55:20.927Z,1014.78
2018-05-02T05:56:42.420Z,1014.79
2018-05-02T05:57:42.069Z,1014.78
2018-05-02T05:58:42.793Z,1014.77
2018-05-02T05:59:42.544Z,1014.77
2018-05-02T06:00:44.253Z,1014.78
2018-05-02T06:01:42.399Z,1014.78
2018-05-02T06:02:42.734Z,1014.76
2018-05-02T06:03:42.672Z,1014.79
2018-05-02T06:05:03.657Z,1014.71
2018-05-02T06:06:04.567Z,1014.75
2018-05-02T06:07:04.992Z,1014.72
2018-05-02T06:08:05.680Z,1014.74
2018-05-02T06:09:05.326Z,1014.68
2018-05-02T06:10:04.251Z,1014.71
2018-05-02T06:11:04.506Z,1014.69
2018-05-02T06:12:25.059Z,1014.70
2018-05-02T06:13:49.227Z,1014.71
2018-05-02T06:14:49.289Z,1014.69
2018-05-02T06:15:51.429Z,1014.65
2018-05-02T06:17:19.212Z,1014.67
2018-05-02T06:18:26.590Z,1014.64
2018-05-02T06:19:16.607Z,1014.66
2018-05-02T06:20:17.395Z,1014.62
2018-05-02T06:21:38.196Z,1014.63
2018-05-02T06:22:37.910Z,1014.62
2018-05-02T06:23:38.569Z,1014.61
2018-05-02T06:24:38.346Z,1014.63
2018-05-02T06:25:38.170Z,1014.64
2018-05-02T06:26:38.283Z,1014.68
2018-05-02T06:27:38.631Z,1014.64
2018-05-02T06:28:38.310Z,1014.62
2018-05-02T06:29:38.973Z,1014.63
2018-05-02T06:30:37.820Z,1014.59
2018-05-02T06:31:39.327Z,1014.60
2018-05-02T06:32:38.122Z,1014.59
2018-05-02T06:33:38.233Z,1014.57
2018-05-02T06:34:38.239Z,1014.53
2018-05-02T06:35:39.093Z,1014.56
2018-05-02T06:36:38.136Z,1014.61
2018-05-02T06:37:38.420Z,1014.60
2018-05-02T06:38:38.236Z,1014.61
2018-05-02T06:39:38.067Z,1014.63
2018-05-02T06:40:38.370Z,1014.58
2018-05-02T06:41:38.426Z,1014.57
2018-05-02T06:42:38.378Z,1014.58
2018-05-02T06:43:38.673Z,1014.58
2018-05-02T06:44:38.398Z,1014.56
2018-05-02T06:45:59.581Z,1014.54
2018-05-02T06:47:00.358Z,1014.56
2018-05-02T06:48:00.566Z,1014.55
2018-05-02T06:49:21.756Z,1014.55
2018-05-02T06:50:22.158Z,1014.52
2018-05-02T06:51:21.977Z,1014.58
2018-05-02T06:52:21.742Z,1014.53
2018-05-02T06:53:21.428Z,1014.54
2018-05-02T06:54:22.601Z,1014.54
2018-05-02T06:55:21.296Z,1014.50
2018-05-02T06:56:22.140Z,1014.49
2018-05-02T06:57:22.370Z,1014.49
2018-05-02T06:58:22.464Z,1014.48
2018-05-02T06:59:22.171Z,1014.49
2018-05-02T07:00:22.381Z,1014.46
2018-05-02T07:01:22.154Z,1014.45
2018-05-02T07:02:42.828Z,1014.44
2018-05-02T07:04:03.507Z,1014.43
2018-05-02T07:05:04.881Z,1014.43
2018-05-02T07:06:03.989Z,1014.43
2018-05-02T07:07:03.918Z,1014.39
2018-05-02T07:08:03.828Z,1014.39
2018-05-02T07:09:04.031Z,1014.39
2018-05-02T07:10:26.572Z,1014.41
2018-05-02T07:11:27.446Z,1014.38
2018-05-02T07:12:27.759Z,1014.36
2018-05-02T07:13:27.890Z,1014.38
2018-05-02T07:14:27.069Z,1014.38
2018-05-02T07:15:27.411Z,1014.38
2018-05-02T07:16:27.559Z,1014.38
2018-05-02T07:18:08.340Z,1014.37
2018-05-02T07:19:08.927Z,1014.34
2018-05-02T07:20:29.101Z,1014.33
2018-05-02T07:21:29.083Z,1014.35
2018-05-02T07:22:50.792Z,1014.35
2018-05-02T07:23:52.009Z,1014.37
2018-05-02T07:24:52.171Z,1014.37
2018-05-02T07:25:51.313Z,1014.34
2018-05-02T07:26:51.224Z,1014.31
2018-05-02T07:27:51.333Z,1014.31
2018-05-02T07:29:33.077Z,1014.30
2018-05-02T07:30:55.135Z,1014.28
2018-05-02T07:31:56.337Z,1014.27
2018-05-02T07:32:56.240Z,1014.25
2018-05-02T07:33:55.524Z,1014.20
2018-05-02T07:34:55.388Z,1014.19
2018-05-02T07:35:56.123Z,1014.25
2018-05-02T07:36:56.150Z,1014.24
2018-05-02T07:37:55.070Z,1014.25
2018-05-02T07:39:00.260Z,1014.23
2018-05-02T07:39:56.335Z,1014.21
2018-05-02T07:41:37.703Z,1014.22
2018-05-02T07:42:38.466Z,1014.21
2018-05-02T07:43:38.537Z,1014.24
2018-05-02T07:44:38.190Z,1014.22
2018-05-02T07:45:38.236Z,1014.22
2018-05-02T07:46:58.998Z,1014.22
2018-05-02T07:47:59.204Z,1014.22
2018-05-02T07:48:59.402Z,1014.24
2018-05-02T07:50:19.942Z,1014.23
2018-05-02T07:51:20.595Z,1014.25
2018-05-02T07:52:20.727Z,1014.24
2018-05-02T07:53:20.451Z,1014.26
2018-05-02T07:54:20.565Z,1014.30
2018-05-02T07:55:20.459Z,1014.28
2018-05-02T07:56:22.200Z,1014.25
2018-05-02T07:57:21.302Z,1014.30
2018-05-02T07:58:41.093Z,1014.31
2018-05-02T07:59:41.954Z,1014.31
2018-05-02T08:00:42.098Z,1014.30
2018-05-02T08:01:41.988Z,1014.33
2018-05-02T08:02:42.044Z,1014.39
2018-05-02T08:03:42.093Z,1014.37
2018-05-02T08:04:42.295Z,1014.36
2018-05-02T08:05:42.359Z,1014.35
2018-05-02T08:06:41.183Z,1014.32
2018-05-02T08:07:41.840Z,1014.41
2018-05-02T08:09:02.033Z,1014.35
2018-05-02T08:10:02.954Z,1014.44
2018-05-02T08:11:02.898Z,1014.38
2018-05-02T08:12:02.742Z,1014.37
2018-05-02T08:13:02.919Z,1014.39
2018-05-02T08:14:02.805Z,1014.35
2018-05-02T08:15:02.963Z,1014.42
2018-05-02T08:16:03.324Z,1014.43
2018-05-02T08:17:24.863Z,1014.40
2018-05-02T08:18:23.673Z,1014.38
2018-05-02T08:19:23.670Z,1014.38
2018-05-02T08:20:23.786Z,1014.41
2018-05-02T08:21:23.616Z,1014.35
2018-05-02T08:22:23.648Z,1014.35
2018-05-02T08:23:23.918Z,1014.35
2018-05-02T08:24:23.789Z,1014.29
2018-05-02T08:25:23.686Z,1014.25
2018-05-02T08:26:23.562Z,1014.25
2018-05-02T08:27:23.413Z,1014.24
2018-05-02T08:28:24.705Z,1014.21
2018-05-02T08:29:23.838Z,1014.24
2018-05-02T08:30:23.415Z,1014.27
2018-05-02T08:31:24.094Z,1014.27
2018-05-02T08:32:24.358Z,1014.25
2018-05-02T08:33:24.446Z,1014.22
2018-05-02T08:34:44.912Z,1014.25
2018-05-02T08:35:46.137Z,1014.26
2018-05-02T08:36:45.353Z,1014.21
2018-05-02T08:37:45.659Z,1014.23
2018-05-02T08:38:45.939Z,1014.18
2018-05-02T08:39:45.714Z,1014.14
2018-05-02T08:41:06.609Z,1014.21
2018-05-02T08:42:06.359Z,1014.14
2018-05-02T08:43:06.884Z,1014.16
2018-05-02T08:44:06.766Z,1014.13
2018-05-02T08:45:08.805Z,1014.11
2018-05-02T08:46:07.885Z,1014.13
2018-05-02T08:47:27.673Z,1014.08
2018-05-02T08:48:48.265Z,1014.03
2018-05-02T08:49:48.341Z,1014.08
2018-05-02T08:50:49.472Z,1014.05
2018-05-02T08:51:48.750Z,1013.99
2018-05-02T08:52:49.004Z,1014.01
2018-05-02T08:53:49.260Z,1014.01
2018-05-02T08:54:49.520Z,1014.07
2018-05-02T08:55:48.419Z,1014.00
2018-05-02T08:56:49.075Z,1014.03
2018-05-02T08:58:30.427Z,1013.98
2018-05-02T08:59:30.633Z,1014.00
2018-05-02T09:00:31.076Z,1013.96
2018-05-02T09:01:31.165Z,1013.99
2018-05-02T09:02:30.065Z,1013.96
2018-05-02T09:03:31.358Z,1013.96
2018-05-02T09:04:30.223Z,1013.96
2018-05-02T09:05:30.532Z,1013.89
2018-05-02T09:06:30.455Z,1013.90
2018-05-02T09:07:30.858Z,1013.96
2018-05-02T09:08:31.091Z,1013.96
2018-05-02T09:09:30.946Z,1013.98
2018-05-02T09:10:30.818Z,1013.96
2018-05-02T09:11:30.914Z,1013.92
2018-05-02T09:12:30.970Z,1013.97
2018-05-02T09:13:31.577Z,1013.98
2018-05-02T09:14:30.408Z,1013.95
2018-05-02T09:15:30.626Z,1013.96
2018-05-02T09:16:31.553Z,1013.89
2018-05-02T09:17:30.544Z,1013.89
2018-05-02T09:18:51.803Z,1013.84
2018-05-02T09:19:51.904Z,1013.81
2018-05-02T09:20:51.824Z,1013.86
2018-05-02T09:21:51.534Z,1013.82
2018-05-02T09:22:52.315Z,1013.82
2018-05-02T09:23:52.399Z,1013.80
2018-05-02T09:24:52.403Z,1013.74
2018-05-02T09:25:52.204Z,1013.74
2018-05-02T09:26:52.421Z,1013.73
2018-05-02T09:27:52.218Z,1013.64
2018-05-02T09:28:52.385Z,1013.61
2018-05-02T09:29:52.650Z,1013.57
2018-05-02T09:31:34.485Z,1013.57
2018-05-02T09:32:34.171Z,1013.43
2018-05-02T09:33:33.961Z,1013.46
2018-05-02T09:34:34.063Z,1013.53
2018-05-02T09:35:34.318Z,1013.49
2018-05-02T09:36:55.375Z,1013.51
2018-05-02T09:37:55.432Z,1013.51
2018-05-02T09:38:55.431Z,1013.49
2018-05-02T09:39:55.576Z,1013.44
2018-05-02T09:40:55.319Z,1013.34
2018-05-02T09:41:55.494Z,1013.37
2018-05-02T09:42:55.219Z,1013.38
2018-05-02T09:43:55.000Z,1013.42
2018-05-02T09:44:56.082Z,1013.37
2018-05-02T09:45:56.277Z,1013.37
2018-05-02T09:46:55.508Z,1013.41
2018-05-02T09:47:55.280Z,1013.34
2018-05-02T09:48:56.021Z,1013.38
2018-05-02T09:49:57.269Z,1013.36
2018-05-02T09:50:54.951Z,1013.38
2018-05-02T09:52:04.224Z,1013.40
2018-05-02T09:52:55.807Z,1013.41
2018-05-02T09:54:17.674Z,1013.42
2018-05-02T09:55:18.037Z,1013.35
2018-05-02T09:56:17.967Z,1013.39
2018-05-02T09:57:17.958Z,1013.42
2018-05-02T09:58:18.211Z,1013.43
2018-05-02T09:59:17.881Z,1013.44
2018-05-02T10:00:18.220Z,1013.43
2018-05-02T10:01:17.745Z,1013.45
2018-05-02T10:02:17.992Z,1013.36
2018-05-02T10:03:17.964Z,1013.39
2018-05-02T10:04:39.191Z,1013.45
2018-05-02T10:05:39.601Z,1013.45
2018-05-02T10:06:39.582Z,1013.46
2018-05-02T10:07:39.482Z,1013.46
2018-05-02T10:10:52.193Z,1013.34
2018-05-02T10:11:53.270Z,1013.35
2018-05-02T10:12:53.409Z,1013.39
2018-05-02T10:13:53.077Z,1013.43
2018-05-02T10:15:13.515Z,1013.38
2018-05-02T10:16:13.334Z,1013.35
2018-05-02T10:17:54.671Z,1013.35
2018-05-02T10:18:54.485Z,1013.35
2018-05-02T10:19:54.348Z,1013.32
2018-05-02T10:20:54.646Z,1013.35
2018-05-02T10:21:54.493Z,1013.37
2018-05-02T10:22:54.326Z,1013.39
2018-05-02T10:24:28.543Z,1013.36
2018-05-02T10:26:11.119Z,1013.40
2018-05-02T10:27:11.044Z,1013.39
2018-05-02T10:28:31.695Z,1013.38
2018-05-02T10:29:31.837Z,1013.39
2018-05-02T10:30:31.627Z,1013.34
2018-05-02T10:32:13.492Z,1013.33
2018-05-02T10:33:14.073Z,1013.27
2018-05-02T10:34:13.893Z,1013.28
2018-05-02T10:35:14.485Z,1013.31
2018-05-02T10:36:13.649Z,1013.28
2018-05-02T10:37:13.773Z,1013.33
2018-05-02T10:38:13.556Z,1013.18
2018-05-02T10:39:13.849Z,1013.22
2018-05-02T10:40:34.802Z,1013.17
2018-05-02T10:41:35.947Z,1013.13
2018-05-02T10:42:35.709Z,1013.10
2018-05-02T10:43:35.778Z,1013.15
2018-05-02T10:44:35.676Z,1013.15
2018-05-02T10:45:35.490Z,1013.08
2018-05-02T10:46:35.271Z,1013.24
2018-05-02T10:47:35.537Z,1013.08
2018-05-02T10:48:35.915Z,1013.07
2018-05-02T10:49:37.644Z,1013.13
2018-05-02T10:51:01.640Z,1013.19
2018-05-02T10:52:02.990Z,1013.16
2018-05-02T10:53:02.629Z,1013.10
2018-05-02T10:54:02.488Z,1013.12
2018-05-02T10:55:02.791Z,1013.09
2018-05-02T10:56:02.239Z,1013.05
2018-05-02T10:57:02.115Z,1013.06
2018-05-02T10:58:02.011Z,1013.04
2018-05-02T10:59:01.840Z,1013.02
2018-05-02T11:00:01.976Z,1013.06
2018-05-02T11:01:02.115Z,1013.12
2018-05-02T11:02:23.305Z,1013.08
2018-05-02T11:03:23.400Z,1013.08
2018-05-02T11:04:23.128Z,1013.05
2018-05-02T11:05:23.489Z,1012.92
2018-05-02T11:06:24.380Z,1013.04
2018-05-02T11:07:23.177Z,1013.06
2018-05-02T11:08:23.101Z,1013.10
2018-05-02T11:09:23.794Z,1013.02
2018-05-02T11:10:23.755Z,1013.03
2018-05-02T11:11:24.677Z,1013.06
2018-05-02T11:13:06.282Z,1013.06
2018-05-02T11:14:06.092Z,1013.05
2018-05-02T11:15:27.599Z,1013.03
2018-05-02T11:16:27.348Z,1012.99
2018-05-02T11:17:48.568Z,1012.97
2018-05-02T11:18:48.760Z,1012.92
2018-05-02T11:19:49.000Z,1012.89
2018-05-02T11:20:48.756Z,1012.89
2018-05-02T11:21:48.618Z,1012.98
2018-05-02T11:22:48.635Z,1012.95
2018-05-02T11:24:09.856Z,1012.98
2018-05-02T11:25:10.068Z,1012.99
2018-05-02T11:26:10.209Z,1012.94
2018-05-02T11:27:09.110Z,1012.94
2018-05-02T11:28:52.724Z,1013.00
2018-05-02T11:30:14.084Z,1012.99
2018-05-02T11:31:13.859Z,1012.95
2018-05-02T11:32:14.729Z,1012.85
2018-05-02T11:33:14.605Z,1012.92
2018-05-02T11:34:14.472Z,1012.88
2018-05-02T11:35:34.937Z,1012.87
2018-05-02T11:36:35.680Z,1012.80
2018-05-02T11:37:35.731Z,1012.80
2018-05-02T11:38:56.894Z,1012.78
2018-05-02T11:39:57.120Z,1012.74
2018-05-02T11:40:57.407Z,1012.74
2018-05-02T11:41:57.247Z,1012.77
2018-05-02T11:42:56.983Z,1012.75
2018-05-02T11:43:57.283Z,1012.64
2018-05-02T11:44:56.332Z,1012.63
2018-05-02T11:45:56.252Z,1012.76
2018-05-02T11:46:57.200Z,1012.70
2018-05-02T11:47:57.038Z,1012.67
2018-05-02T11:49:17.791Z,1012.65
2018-05-02T11:50:18.098Z,1012.68
2018-05-02T11:51:18.010Z,1012.66
2018-05-02T11:52:39.867Z,1012.64
2018-05-02T11:53:39.832Z,1012.60
2018-05-02T11:54:39.727Z,1012.59
2018-05-02T11:55:39.661Z,1012.56
2018-05-02T11:56:39.510Z,1012.50
2018-05-02T11:57:39.377Z,1012.60
2018-05-02T11:58:40.424Z,1012.53
2018-05-02T11:59:39.848Z,1012.53
2018-05-02T12:00:40.055Z,1012.51
2018-05-02T12:01:40.213Z,1012.47
2018-05-02T12:02:40.542Z,1012.38
2018-05-02T12:03:40.307Z,1012.38
2018-05-02T12:04:40.186Z,1012.38
2018-05-02T12:05:40.527Z,1012.44
2018-05-02T12:06:39.245Z,1012.38
2018-05-02T12:08:01.534Z,1012.35
2018-05-02T12:09:01.674Z,1012.38
2018-05-02T12:10:01.537Z,1012.32
2018-05-02T12:11:01.513Z,1012.41
2018-05-02T12:12:01.723Z,1012.42
2018-05-02T12:13:01.539Z,1012.44
2018-05-02T12:14:01.821Z,1012.42
2018-05-02T12:15:01.704Z,1012.40
2018-05-02T12:16:22.891Z,1012.39
2018-05-02T12:17:22.893Z,1012.35
2018-05-02T12:19:04.482Z,1012.38
2018-05-02T12:20:04.747Z,1012.42
2018-05-02T12:21:47.959Z,1012.35
2018-05-02T12:22:47.790Z,1012.46
2018-05-02T12:24:08.785Z,1012.37
2018-05-02T12:25:09.544Z,1012.36
2018-05-02T12:26:09.898Z,1012.35
2018-05-02T12:27:09.978Z,1012.27
2018-05-02T12:28:31.305Z,1012.24
2018-05-02T12:29:30.612Z,1012.23
2018-05-02T12:30:52.111Z,1012.26
2018-05-02T12:31:51.869Z,1012.26
2018-05-02T12:32:51.975Z,1012.20
2018-05-02T12:33:52.359Z,1012.16
2018-05-02T12:34:52.611Z,1012.11
2018-05-02T12:35:52.872Z,1012.04
2018-05-02T12:36:51.758Z,1012.05
2018-05-02T12:38:13.932Z,1012.19
2018-05-02T12:39:13.900Z,1012.19
2018-05-02T12:40:13.998Z,1012.24
2018-05-02T12:41:14.349Z,1012.24
2018-05-02T12:42:14.737Z,1012.20
2018-05-02T12:43:13.941Z,1012.20
2018-05-02T12:44:13.904Z,1012.25
2018-05-02T12:45:14.236Z,1012.22
2018-05-02T12:46:14.534Z,1012.20
2018-05-02T12:47:15.045Z,1012.21
2018-05-02T12:48:14.306Z,1012.19
2018-05-02T12:49:14.992Z,1012.17
2018-05-02T12:50:14.146Z,1012.12
2018-05-02T12:51:14.401Z,1012.17
2018-05-02T12:52:14.249Z,1012.11
2018-05-02T12:53:14.367Z,1012.11
2018-05-02T12:54:14.409Z,1012.13